createdAt,value
2018-02-15T00:05:56.929Z,34.67
2018-02-15T00:12:01.558Z,31.40
2018-02-15T00:18:06.066Z,33.57
2018-02-15T00:24:10.782Z,30.77
2018-02-15T00:30:15.308Z,30.20
2018-02-15T00:36:19.842Z,32.93
2018-02-15T00:42:25.126Z,26.90
2018-02-15T00:48:30.578Z,45.27
2018-02-15T00:54:35.202Z,29.20
2018-02-15T01:00:39.759Z,30.13
2018-02-15T01:06:44.258Z,28.93
2018-02-15T01:12:48.842Z,37.20
2018-02-15T01:18:53.889Z,30.97
2018-02-15T01:24:58.706Z,31.57
2018-02-15T01:31:03.196Z,30.33
2018-02-15T01:37:07.700Z,31.27
2018-02-15T01:43:12.948Z,28.07
2018-02-15T01:49:17.588Z,32.30
2018-02-15T01:55:22.807Z,31.23
2018-02-15T02:01:27.608Z,34.13
2018-02-15T02:07:32.150Z,31.13
2018-02-15T02:13:36.949Z,34.17
2018-02-15T02:19:41.565Z,29.67
2018-02-15T02:25:47.559Z,31.47
2018-02-15T02:31:53.541Z,31.07
2018-02-15T02:37:58.875Z,31.63
2018-02-15T02:44:03.419Z,33.80
2018-02-15T02:50:08.129Z,42.27
2018-02-15T02:56:12.623Z,29.80
2018-02-15T03:02:17.143Z,38.27
2018-02-15T03:08:22.228Z,32.80
2018-02-15T03:14:27.729Z,28.20
2018-02-15T03:20:32.319Z,34.70
2018-02-15T03:26:36.923Z,34.77
2018-02-15T03:32:41.532Z,30.23
2018-02-15T03:38:46.100Z,33.40
2018-02-15T03:44:51.150Z,27.07
2018-02-15T03:50:55.738Z,29.57
2018-02-15T03:57:00.217Z,30.73
2018-02-15T04:03:04.768Z,34.93
2018-02-15T04:09:09.317Z,28.60
2018-02-15T04:15:13.973Z,27.57
2018-02-15T04:21:18.435Z,34.33
2018-02-15T04:27:23.067Z,34.60
2018-02-15T04:33:27.910Z,27.30
2018-02-15T04:39:32.443Z,31.37
2018-02-15T04:45:37.708Z,33.80
2018-02-15T04:51:42.254Z,29.90
2018-02-15T04:57:47.595Z,34.93
2018-02-15T05:03:52.975Z,27.27
2018-02-15T05:09:58.234Z,26.90
2018-02-15T05:16:02.756Z,28.57
2018-02-15T05:22:07.266Z,24.80
2018-02-15T05:28:11.790Z,27.13
2018-02-15T05:34:16.338Z,27.93
2018-02-15T05:40:21.496Z,33.83
2018-02-15T05:46:25.991Z,30.33
2018-02-15T05:52:30.515Z,29.60
2018-02-15T05:58:35.127Z,35.67
2018-02-15T06:04:41.141Z,29.63
2018-02-15T06:10:45.613Z,33.33
2018-02-15T06:16:50.331Z,29.70
2018-02-15T06:22:55.044Z,30.43
2018-02-15T06:28:59.603Z,32.73
2018-02-15T06:35:04.121Z,32.93
2018-02-15T06:41:08.670Z,35.63
2018-02-15T06:47:13.385Z,26.37
2018-02-15T06:53:17.987Z,24.60
2018-02-15T06:59:22.837Z,49.23
2018-02-15T07:05:27.383Z,35.03
2018-02-15T07:11:32.000Z,30.37
2018-02-15T07:17:36.497Z,33.53
2018-02-15T07:23:40.994Z,25.63
2018-02-15T07:29:46.415Z,28.10
2018-02-15T07:35:51.152Z,55.77
2018-02-15T07:41:56.536Z,27.63
2018-02-15T07:48:01.843Z,28.87
2018-02-15T07:54:06.346Z,28.77
2018-02-15T08:00:10.916Z,28.10
2018-02-15T08:06:15.712Z,26.77
2018-02-15T08:12:21.012Z,28.33
2018-02-15T08:18:26.272Z,28.87
2018-02-15T08:24:30.731Z,28.17
2018-02-15T08:30:35.270Z,41.33
2018-02-15T08:36:40.584Z,35.47
2018-02-15T08:42:45.977Z,43.00
2018-02-15T08:48:51.436Z,29.03
2018-02-15T08:54:56.815Z,28.57
2018-02-15T09:01:01.641Z,32.37
2018-02-15T09:07:06.230Z,30.50
2018-02-15T09:13:11.505Z,28.70
2018-02-15T09:19:15.979Z,29.13
2018-02-15T09:25:21.661Z,30.17
2018-02-15T09:31:26.476Z,33.67
2018-02-15T09:37:31.767Z,29.33
2018-02-15T09:43:37.958Z,32.77
2018-02-15T09:49:42.483Z,27.13
2018-02-15T09:55:47.781Z,29.97
2018-02-15T10:01:52.522Z,31.37
2018-02-15T10:07:57.168Z,34.97
2018-02-15T10:14:01.692Z,53.23
2018-02-15T10:20:06.166Z,31.37
2018-02-15T10:26:10.845Z,37.93
2018-02-15T10:32:15.427Z,74.23
2018-02-15T10:38:20.713Z,75.80
2018-02-15T10:44:25.220Z,82.90
2018-02-15T10:50:29.713Z,56.40
2018-02-15T10:56:35.014Z,49.53
2018-02-15T11:02:39.574Z,38.03
2018-02-15T11:08:44.236Z,42.93
2018-02-15T11:14:48.746Z,42.23
2018-02-15T11:20:53.930Z,31.30
2018-02-15T11:26:59.169Z,35.67
2018-02-15T11:33:03.651Z,27.37
2018-02-15T11:39:08.344Z,49.23
2018-02-15T11:45:12.982Z,28.33
2018-02-15T11:51:18.223Z,26.70
2018-02-15T11:57:22.822Z,26.63
2018-02-15T12:03:28.686Z,24.40
2018-02-15T12:09:33.091Z,27.43
2018-02-15T12:15:37.594Z,25.60
2018-02-15T12:21:42.210Z,27.57
2018-02-15T12:27:46.693Z,23.53
2018-02-15T12:33:51.240Z,38.70
2018-02-15T12:39:55.738Z,27.87
2018-02-15T12:46:00.314Z,32.50
2018-02-15T12:52:04.837Z,32.70
2018-02-15T12:58:10.250Z,30.80
2018-02-15T13:04:14.993Z,30.00
2018-02-15T13:10:19.747Z,31.53
2018-02-15T13:16:42.106Z,42.90
2018-02-15T13:22:49.511Z,37.40
2018-02-15T13:28:54.206Z,34.37
2018-02-15T13:34:58.974Z,37.60
2018-02-15T13:41:03.648Z,36.23
2018-02-15T13:47:08.135Z,41.30
2018-02-15T13:53:13.440Z,34.77
2018-02-15T13:59:17.937Z,41.03
2018-02-15T14:05:22.534Z,47.70
2018-02-15T14:11:27.349Z,41.30
2018-02-15T14:17:32.603Z,45.50
2018-02-15T14:23:37.134Z,31.40
2018-02-15T14:29:42.229Z,39.90
2018-02-15T14:35:46.786Z,34.43
2018-02-15T14:41:52.135Z,35.03
2018-02-15T14:47:56.856Z,36.47
2018-02-15T14:54:01.403Z,34.23
2018-02-15T15:00:06.131Z,35.10
2018-02-15T15:06:10.646Z,34.70
2018-02-15T15:12:15.206Z,35.07
2018-02-15T15:18:20.060Z,33.80
2018-02-15T15:24:24.744Z,34.67
2018-02-15T15:30:30.085Z,38.83
2018-02-15T15:36:34.761Z,35.93
2018-02-15T15:42:39.273Z,37.20
2018-02-15T15:48:44.762Z,35.90
2018-02-15T15:54:49.497Z,37.20
2018-02-15T16:00:54.271Z,36.13
2018-02-15T16:06:59.035Z,38.13
2018-02-15T16:13:03.670Z,31.10
2018-02-15T16:19:08.267Z,44.20
2018-02-15T16:25:12.910Z,46.10
2018-02-15T16:31:17.872Z,41.93
2018-02-15T16:37:22.558Z,36.70
2018-02-15T16:43:27.195Z,38.77
2018-02-15T16:49:31.708Z,43.03
2018-02-15T16:55:36.428Z,45.10
2018-02-15T17:01:41.699Z,45.70
2018-02-15T17:07:46.352Z,40.70
2018-02-15T17:13:51.917Z,39.63
2018-02-15T17:19:56.457Z,52.40
2018-02-15T17:26:00.927Z,43.17
2018-02-15T17:32:05.473Z,39.53
2018-02-15T17:38:10.900Z,42.27
2018-02-15T17:44:15.454Z,44.60
2018-02-15T17:50:20.106Z,51.13
2018-02-15T17:56:24.996Z,42.47
2018-02-15T18:02:29.479Z,50.37
2018-02-15T18:08:34.012Z,40.37
2018-02-15T18:14:38.611Z,44.23
2018-02-15T18:20:43.888Z,48.87
2018-02-15T18:26:48.595Z,50.60
2018-02-15T18:32:53.151Z,43.90
2018-02-15T18:38:57.763Z,45.60
2018-02-15T18:45:03.169Z,48.30
2018-02-15T18:51:07.687Z,47.67
2018-02-15T18:57:12.184Z,47.57
2018-02-15T19:03:16.915Z,47.10
2018-02-15T19:09:21.920Z,43.93
2018-02-15T19:15:26.628Z,45.63
2018-02-15T19:21:31.898Z,76.77
2018-02-15T19:27:36.416Z,51.27
2018-02-15T19:33:41.810Z,48.40
2018-02-15T19:39:46.443Z,48.27
2018-02-15T19:45:51.679Z,58.50
2018-02-15T19:51:56.373Z,48.63
2018-02-15T19:58:00.828Z,51.90
2018-02-15T20:04:05.316Z,48.77
2018-02-15T20:10:10.593Z,51.33
2018-02-15T20:16:15.083Z,46.07
2018-02-15T20:22:19.961Z,53.40
2018-02-15T20:28:27.474Z,46.93
2018-02-15T20:34:32.869Z,53.07
2018-02-15T20:40:37.457Z,52.47
2018-02-15T20:46:41.924Z,52.70
2018-02-15T20:52:51.972Z,49.60
2018-02-15T20:58:56.518Z,54.00
2018-02-15T21:05:01.001Z,56.35
2018-02-15T21:11:05.496Z,50.17
2018-02-15T21:17:10.255Z,49.73
2018-02-15T21:23:14.887Z,51.40
2018-02-15T21:29:19.791Z,48.33
2018-02-15T21:35:24.313Z,46.57
2018-02-15T21:41:28.738Z,46.10
2018-02-15T21:47:34.035Z,48.30
2018-02-15T21:53:38.578Z,45.77
2018-02-15T21:59:43.080Z,46.80
2018-02-15T22:05:47.745Z,46.80
2018-02-15T22:11:52.509Z,45.17
2018-02-15T22:17:57.066Z,42.10
2018-02-15T22:24:01.819Z,48.87
2018-02-15T22:30:06.374Z,42.70
2018-02-15T22:36:10.880Z,48.67
2018-02-15T22:42:15.628Z,48.87
2018-02-15T22:48:21.644Z,55.93
2018-02-15T22:54:26.487Z,42.50
2018-02-15T23:00:31.798Z,51.60
2018-02-15T23:06:36.269Z,49.63
2018-02-15T23:12:40.752Z,54.67
2018-02-15T23:18:45.243Z,43.53
2018-02-15T23:24:50.213Z,48.37
2018-02-15T23:30:55.144Z,50.67
2018-02-15T23:37:00.808Z,50.57
2018-02-15T23:43:05.371Z,44.07
2018-02-15T23:49:10.689Z,45.80
2018-02-15T23:55:15.610Z,47.30
